Time;durP1;ratioP1;P1;durP2;ratioP2;P2;SDS_P1;SDS_P2;PMS_P1;PMS_P2;Temp;Humidity;BMP_temperature;BMP_pressure;BME280_temperature;BME280_humidity;BME280_pressure;Samples;Min_cycle;Max_cycle;Signal;HPM_P1;HPM_P2
2022/05/22 00:01:00;;;;;;;3.30;1.70;;;;;;;12.66;63.97;98436.88;432746;1270;112230;-42
2022/05/22 00:11:07;;;;;;;3.90;2.60;;;;;;;12.72;63.93;98438.15;432709;1270;108404;-41
2022/05/22 00:21:14;;;;;;;3.80;2.40;;;;;;;12.68;64.02;98436.31;432876;1270;98850;-42
2022/05/22 00:31:22;;;;;;;3.10;2.30;;;;;;;12.60;64.40;98424.02;432543;1270;108606;-42
2022/05/22 00:41:30;;;;;;;3.90;1.90;;;;;;;12.46;64.61;98423.48;432723;1270;98059;-41
2022/05/22 00:51:39;;;;;;;2.80;1.50;;;;;;;12.38;64.62;98425.66;432695;1271;112390;-44
2022/05/22 01:01:48;;;;;;;5.60;2.40;;;;;;;12.28;64.63;98420.07;432769;1271;108927;-42
2022/05/22 01:12:02;;;;;;;3.40;2.10;;;;;;;12.20;64.75;98419.17;433136;1260;99936;-38
2022/05/22 01:22:12;;;;;;;3.20;2.70;;;;;;;11.98;65.04;98427.88;433289;1270;114183;-45
2022/05/22 01:32:20;;;;;;;4.70;2.80;;;;;;;11.98;65.20;98428.77;433127;1270;108864;-44
2022/05/22 01:42:27;;;;;;;5.70;2.70;;;;;;;12.06;65.60;98426.98;433061;1269;98421;-44
2022/05/22 01:52:34;;;;;;;6.10;2.80;;;;;;;12.07;65.89;98421.53;432486;1270;108806;-44
2022/05/22 02:02:41;;;;;;;5.80;3.30;;;;;;;11.86;66.01;98409.99;433199;1270;99272;-41
2022/05/22 02:12:48;;;;;;;4.90;2.70;;;;;;;11.61;66.09;98401.70;432973;1270;112482;-42
2022/05/22 02:22:58;;;;;;;5.20;3.10;;;;;;;11.50;66.21;98398.41;433059;1270;108754;-42
2022/05/22 02:33:06;;;;;;;6.90;2.70;;;;;;;11.30;66.54;98406.87;433178;1270;99311;-44
2022/05/22 02:43:14;;;;;;;5.70;3.60;;;;;;;11.13;67.05;98402.71;433220;1270;108808;-43
2022/05/22 02:53:21;;;;;;;6.30;3.90;;;;;;;11.02;67.28;98403.59;433110;1270;99287;-42
2022/05/22 03:03:29;;;;;;;8.20;3.60;;;;;;;10.89;67.52;98400.66;432979;1270;112557;-41
2022/05/22 03:13:36;;;;;;;6.90;3.40;;;;;;;10.95;67.52;98394.80;432936;1270;108894;-41
2022/05/22 03:23:43;;;;;;;3.80;2.70;;;;;;;11.09;67.52;98389.00;433078;1270;99244;-42
2022/05/22 03:33:50;;;;;;;8.90;4.20;;;;;;;11.45;67.73;98383.42;433111;1271;107734;-41
2022/05/22 03:43:58;;;;;;;3.70;2.50;;;;;;;13.51;66.88;98377.13;433135;1270;98841;-43
2022/05/22 03:54:03;;;;;;;6.50;2.50;;;;;;;15.39;65.07;98373.60;433047;1271;112638;-42
2022/05/22 04:04:10;;;;;;;7.20;3.00;;;;;;;16.51;63.07;98383.42;432598;1271;108805;-45
2022/05/22 04:14:20;;;;;;;5.70;3.40;;;;;;;17.22;61.25;98384.83;432757;1271;100365;-42
2022/05/22 04:34:51;;;;;;;7.60;3.80;;;;;;;17.36;58.25;98390.16;432542;1270;99287;-44
2022/05/22 04:44:59;;;;;;;6.00;2.80;;;;;;;16.11;58.51;98389.90;432553;1271;112985;-45
2022/05/22 04:55:03;;;;;;;3.70;2.40;;;;;;;15.10;58.99;98395.95;432478;1270;107861;-44
2022/05/22 05:05:11;;;;;;;8.20;2.90;;;;;;;15.88;59.19;98386.23;432728;1270;99292;-41
2022/05/22 05:15:20;;;;;;;6.60;2.50;;;;;;;17.26;57.91;98381.27;432788;1270;108894;-46
2022/05/22 05:25:28;;;;;;;5.10;1.70;;;;;;;17.17;56.03;98380.60;432632;1270;99291;-43
2022/05/22 05:35:35;;;;;;;4.10;2.10;;;;;;;16.18;55.76;98382.45;432824;1270;112619;-41
2022/05/22 05:45:44;;;;;;;5.60;2.00;;;;;;;14.94;57.07;98389.95;432801;1271;108837;-41
2022/05/22 05:55:51;;;;;;;9.30;3.10;;;;;;;14.03;58.72;98395.13;432794;1270;99279;-41
2022/05/22 06:06:19;;;;;;;5.90;2.70;;;;;;;14.10;59.80;98391.34;432706;1270;109687;-45
2022/05/22 06:26:33;;;;;;;5.50;2.30;;;;;;;14.26;59.83;98396.48;432611;1270;112472;-42
2022/05/22 06:36:40;;;;;;;8.80;2.30;;;;;;;14.42;60.15;98402.25;432566;1270;108875;-41
2022/05/22 06:46:47;;;;;;;6.90;1.80;;;;;;;15.60;59.33;98398.34;432407;1270;99291;-45
2022/05/22 06:56:54;;;;;;;5.20;1.50;;;;;;;15.39;58.06;98405.20;432348;1273;112459;-41
2022/05/22 07:07:01;;;;;;;4.70;1.20;;;;;;;15.78;57.19;98401.55;432394;1270;108748;-43
2022/05/22 07:17:11;;;;;;;6.90;1.50;;;;;;;16.44;55.96;98397.36;432546;1270;99285;-44
2022/05/22 07:27:19;;;;;;;4.70;1.20;;;;;;;16.79;53.58;98394.50;432520;1270;108754;-44
2022/05/22 07:37:26;;;;;;;5.90;1.90;;;;;;;16.33;53.55;98392.49;432494;1270;99925;-42
2022/05/22 07:47:32;;;;;;;8.30;1.20;;;;;;;16.45;53.18;98388.55;432498;1270;112458;-42
2022/05/22 07:57:39;;;;;;;9.20;1.50;;;;;;;16.70;52.46;98385.75;432429;1270;108893;-46
2022/05/22 08:07:46;;;;;;;5.70;1.40;;;;;;;16.58;51.94;98379.06;432453;1270;99259;-42
2022/05/22 08:17:54;;;;;;;3.30;1.00;;;;;;;17.50;52.38;98366.91;432563;1270;108952;-42
2022/05/22 08:28:04;;;;;;;4.60;1.20;;;;;;;17.80;51.05;98354.84;432742;1270;99254;-42
2022/05/22 08:38:12;;;;;;;8.80;1.40;;;;;;;17.83;50.39;98337.75;432745;1270;112354;-41
2022/05/22 08:48:16;;;;;;;1.70;0.70;;;;;;;17.05;50.32;98346.65;432618;1269;107734;-41
2022/05/22 09:08:51;;;;;;;1.80;0.80;;;;;;;17.49;49.90;98349.40;432393;1270;108001;-42
2022/05/22 09:18:56;;;;;;;1.40;0.70;;;;;;;16.88;49.74;98343.52;432620;1270;98853;-43
2022/05/22 09:29:01;;;;;;;7.60;3.00;;;;;;;17.31;49.97;98341.10;432650;1270;112447;-42
2022/05/22 09:39:09;;;;;;;3.00;1.00;;;;;;;17.63;49.16;98333.13;432515;1270;108807;-44
2022/05/22 09:49:23;;;;;;;2.50;0.60;;;;;;;17.33;48.23;98344.98;432605;1270;99260;-42
2022/05/22 09:59:38;;;;;;;2.00;0.80;;;;;;;17.23;49.01;98352.06;432486;1268;108903;-43
2022/05/22 10:09:44;;;;;;;4.40;0.80;;;;;;;17.35;48.27;98349.19;432578;1270;99288;-41
2022/05/22 10:19:49;;;;;;;3.10;0.70;;;;;;;17.19;48.61;98341.73;432407;1270;112451;-40
2022/05/22 10:30:00;;;;;;;1.90;0.80;;;;;;;16.66;49.24;98349.17;432409;1270;108848;-42
2022/05/22 10:40:14;;;;;;;2.60;1.20;;;;;;;15.82;50.11;98360.10;432646;1270;98039;-42
2022/05/22 10:50:19;;;;;;;4.30;1.30;;;;;;;15.39;50.98;98376.59;432223;1270;679945;-44
2022/05/22 11:20:51;;;;;;;5.20;2.40;;;;;;;14.81;54.20;98398.89;432577;1270;108845;-42
2022/05/22 11:31:04;;;;;;;6.30;2.40;;;;;;;14.54;55.29;98404.29;432511;1270;99287;-42
2022/05/22 11:41:11;;;;;;;3.20;1.70;;;;;;;14.41;56.13;98405.80;432556;1270;112306;-42
2022/05/22 11:51:48;;;;;;;5.40;2.00;;;;;;;14.75;56.99;98409.56;432714;1270;107858;-42
2022/05/22 12:01:53;;;;;;;5.10;1.60;;;;;;;15.12;56.79;98408.38;432640;1269;99250;-41
2022/05/22 12:12:00;;;;;;;3.10;1.20;;;;;;;14.77;56.86;98403.52;432570;1270;112438;-41
2022/05/22 12:22:06;;;;;;;4.80;1.50;;;;;;;14.97;57.23;98402.64;432495;1270;109566;-42
2022/05/22 12:32:11;;;;;;;1.60;1.30;;;;;;;15.45;56.47;98402.50;432473;1270;99950;-42
2022/05/22 12:42:20;;;;;;;5.00;1.40;;;;;;;15.29;56.15;98394.48;432585;1270;108862;-42
2022/05/22 12:52:31;;;;;;;5.80;2.20;;;;;;;14.88;57.02;98397.89;432572;1270;99263;-41
2022/05/22 13:02:42;;;;;;;1.90;1.40;;;;;;;14.53;58.08;98388.75;432450;1270;112383;-42
2022/05/22 13:12:53;;;;;;;1.90;1.00;;;;;;;14.82;59.14;98377.65;432623;1270;109027;-42
2022/05/22 13:23:06;;;;;;;3.90;1.30;;;;;;;15.48;59.67;98352.65;433091;1269;99307;-42
2022/05/22 13:33:18;;;;;;;5.20;1.60;;;;;;;15.73;59.72;98351.33;432573;1270;108780;-41
2022/05/22 13:44:07;;;;;;;4.10;2.20;;;;;;;16.05;60.07;98349.06;432796;1271;99296;-43
2022/05/22 13:54:21;;;;;;;1.40;1.20;;;;;;;16.63;59.34;98339.38;433337;1269;112723;-42
2022/05/22 14:04:28;;;;;;;2.10;1.30;;;;;;;16.92;57.53;98328.31;433405;1270;107865;-42
2022/05/22 14:14:36;;;;;;;3.20;1.50;;;;;;;17.01;56.34;98320.02;433128;1270;99260;-41
2022/05/22 14:35:09;;;;;;;7.30;1.40;;;;;;;16.09;54.47;98320.36;433099;1269;109076;-42
2022/05/22 15:06:01;;;;;;;7.80;3.40;;;;;;;15.71;54.65;98322.18;433011;1270;99284;-41
2022/05/22 15:16:08;;;;;;;4.20;1.80;;;;;;;15.98;54.65;98317.88;433044;1270;111265;-41
2022/05/22 15:26:24;;;;;;;5.00;2.70;;;;;;;16.02;54.63;98316.91;432794;1270;108779;-43
2022/05/22 15:36:29;;;;;;;8.60;2.60;;;;;;;15.97;54.55;98310.05;433208;1270;99260;-40
2022/05/22 15:46:39;;;;;;;5.90;1.70;;;;;;;16.06;54.54;98300.58;432490;1270;108749;-41
2022/05/22 15:56:48;;;;;;;19.10;4.70;;;;;;;16.04;54.23;98296.31;433384;1270;99304;-41
2022/05/22 16:06:55;;;;;;;4.30;2.10;;;;;;;15.79;53.85;98293.47;433067;1270;112689;-42
2022/05/22 16:17:05;;;;;;;6.00;1.90;;;;;;;15.79;53.92;98293.89;432542;1270;108835;-41
2022/05/22 16:27:12;;;;;;;3.80;1.70;;;;;;;15.65;54.13;98298.64;432669;1270;99368;-43
2022/05/22 16:37:27;;;;;;;3.20;2.10;;;;;;;15.68;54.43;98304.48;432576;1268;108992;-42
2022/05/22 16:58:01;;;;;;;11.30;4.30;;;;;;;15.14;55.03;98315.13;432869;1270;112420;-41
2022/05/22 17:08:09;;;;;;;6.50;2.50;;;;;;;15.08;55.87;98320.23;432952;1269;108882;-42
2022/05/22 17:18:16;;;;;;;4.90;2.00;;;;;;;14.93;56.21;98323.69;432677;1270;98038;-41
2022/05/22 17:28:25;;;;;;;4.60;2.00;;;;;;;14.91;56.52;98317.09;432523;1270;108872;-41
2022/05/22 17:38:35;;;;;;;6.60;3.30;;;;;;;14.72;56.71;98325.73;432530;1271;99265;-41
2022/05/22 17:58:49;;;;;;;7.80;3.60;;;;;;;13.84;59.54;98339.63;432405;1270;109204;-42
2022/05/22 18:08:56;;;;;;;8.80;4.50;;;;;;;13.39;60.50;98336.15;432386;1270;98038;-42
2022/05/22 18:19:02;;;;;;;7.20;4.00;;;;;;;13.17;61.53;98340.11;432603;1270;108696;-42
2022/05/22 18:29:16;;;;;;;11.20;5.70;;;;;;;12.99;62.38;98338.63;432499;1271;98109;-43
2022/05/22 18:39:23;;;;;;;9.50;5.90;;;;;;;12.69;62.96;98337.06;432540;1270;112750;-40
2022/05/22 18:49:30;;;;;;;11.30;6.40;;;;;;;12.20;63.49;98345.58;433103;1270;108788;-42
2022/05/22 18:59:39;;;;;;;15.20;10.10;;;;;;;11.86;64.29;98354.41;432880;1270;99286;-41
2022/05/22 19:09:47;;;;;;;12.90;7.80;;;;;;;11.59;64.74;98359.56;433038;1270;112356;-40
2022/05/22 19:19:54;;;;;;;11.70;6.80;;;;;;;11.47;65.19;98360.72;432873;1270;108748;-41
2022/05/22 19:30:00;;;;;;;13.20;7.80;;;;;;;11.35;65.65;98363.23;433270;1270;99365;-41
2022/05/22 19:40:09;;;;;;;14.70;8.10;;;;;;;11.32;66.13;98361.84;433091;1270;108799;-42
2022/05/22 19:50:16;;;;;;;14.50;9.40;;;;;;;11.25;66.56;98354.16;433294;1270;99065;-40
2022/05/22 20:00:21;;;;;;;15.40;9.00;;;;;;;11.18;67.29;98352.84;432966;1270;112391;-41
2022/05/22 20:10:36;;;;;;;10.00;6.10;;;;;;;11.05;67.27;98358.83;432996;1270;107789;-43
2022/05/22 20:20:44;;;;;;;7.70;5.10;;;;;;;10.86;67.45;98356.31;432555;1269;99253;-42
2022/05/22 20:41:01;;;;;;;7.90;6.10;;;;;;;10.76;68.22;98356.84;432549;1271;99272;-41
2022/05/22 20:51:09;;;;;;;9.50;7.10;;;;;;;10.55;68.32;98358.55;432462;1270;113177;-42
2022/05/22 21:01:16;;;;;;;10.30;7.30;;;;;;;10.37;68.45;98365.88;432731;1270;108842;-41
2022/05/22 21:21:30;;;;;;;12.70;6.60;;;;;;;10.13;68.71;98368.31;432706;1270;108948;-44
2022/05/22 21:31:38;;;;;;;7.50;6.40;;;;;;;9.97;68.93;98374.27;432626;1270;98833;-41
2022/05/22 21:41:46;;;;;;;8.00;6.50;;;;;;;9.82;69.27;98373.32;432813;1270;112573;-42
2022/05/22 21:51:53;;;;;;;9.10;6.60;;;;;;;9.66;69.52;98374.85;432632;1270;108822;-42
2022/05/22 22:02:01;;;;;;;10.20;6.40;;;;;;;9.58;69.55;98377.89;433174;1270;98086;-45
2022/05/22 22:12:10;;;;;;;11.00;6.80;;;;;;;9.51;69.80;98379.48;433019;1270;112385;-42
2022/05/22 22:22:17;;;;;;;8.40;6.10;;;;;;;9.58;69.98;98376.63;433269;1270;107755;-42
2022/05/22 22:32:25;;;;;;;10.60;6.90;;;;;;;9.55;70.16;98375.23;433235;1270;99269;-41
2022/05/22 22:42:31;;;;;;;10.60;6.90;;;;;;;9.32;70.30;98376.34;431441;1270;2776458;-43
2022/05/22 22:52:38;;;;;;;11.50;7.30;;;;;;;9.39;69.85;98377.27;431970;1270;109334;-45
2022/05/22 23:02:45;;;;;;;11.10;7.10;;;;;;;9.46;69.94;98374.59;433358;1270;99260;-40
2022/05/22 23:12:53;;;;;;;7.80;6.30;;;;;;;9.19;70.67;98373.27;433165;1270;108838;-41
2022/05/22 23:23:01;;;;;;;10.10;8.20;;;;;;;9.16;71.15;98366.07;433237;1270;99253;-41
2022/05/22 23:33:05;;;;;;;12.30;8.10;;;;;;;9.00;71.18;98367.13;433126;1270;112226;-41
2022/05/22 23:43:13;;;;;;;11.30;7.20;;;;;;;8.76;70.96;98369.09;433171;1270;108826;-40
2022/05/22 23:53:21;;;;;;;11.70;7.10;;;;;;;8.57;70.98;98365.16;433113;1270;99270;-42
